Time;durP1;ratioP1;P1;durP2;ratioP2;P2;SDS_P1;SDS_P2;PMS_P1;PMS_P2;Temp;Humidity;BMP_temperature;BMP_pressure;BME280_temperature;BME280_humidity;BME280_pressure;Samples;Min_cycle;Max_cycle;Signal;HPM_P1;HPM_P2
2022/01/16 00:00:59;;;;;;;1.17;0.72;;;;;;;1.78;54.24;100185.84;1701487;83;20944;-73
2022/01/16 00:06:01;;;;;;;1.67;0.70;;;;;;;1.79;54.44;100182.31;1698993;84;21478;-74
2022/01/16 00:08:28;;;;;;;1.70;0.80;;;;;;;1.78;54.62;100179.33;1679434;83;21075;-73
2022/01/16 00:10:56;;;;;;;1.90;0.93;;;;;;;1.77;54.51;100182.85;1685139;84;22851;-73
2022/01/16 00:13:23;;;;;;;2.25;1.20;;;;;;;1.76;54.39;100192.42;1689091;84;21076;-74
2022/01/16 00:15:50;;;;;;;2.33;0.90;;;;;;;1.76;54.28;100194.19;1692053;84;21083;-73
2022/01/16 00:18:26;;;;;;;1.70;0.90;;;;;;;1.76;54.21;100198.09;1689070;84;21004;-73
2022/01/16 00:20:48;;;;;;;2.05;0.88;;;;;;;1.77;54.31;100204.98;1688149;84;21383;-74
2022/01/16 00:23:23;;;;;;;2.17;0.95;;;;;;;1.77;54.33;100194.56;1684438;84;22214;-73
2022/01/16 00:25:45;;;;;;;1.90;0.80;;;;;;;1.78;54.39;100200.16;1697346;83;21540;-74
2022/01/16 00:28:11;;;;;;;1.87;0.62;;;;;;;1.79;54.54;100205.75;1681948;84;21025;-74
2022/01/16 00:30:38;;;;;;;2.98;0.80;;;;;;;1.79;54.55;100201.84;1691455;84;21031;-73
2022/01/16 00:33:04;;;;;;;1.92;0.80;;;;;;;1.80;54.62;100204.38;1683153;84;21061;-74
2022/01/16 00:35:31;;;;;;;1.52;0.70;;;;;;;1.79;54.74;100214.86;1694585;84;21862;-73
2022/01/16 00:37:58;;;;;;;2.50;0.82;;;;;;;1.77;54.69;100224.05;1692661;84;21091;-74
2022/01/16 00:40:25;;;;;;;1.92;0.70;;;;;;;1.78;54.76;100207.97;1677788;84;21041;-74
2022/01/16 00:42:54;;;;;;;3.40;1.00;;;;;;;1.76;54.75;100201.53;1694353;84;21028;-75
2022/01/16 00:45:20;;;;;;;2.80;1.00;;;;;;;1.74;54.73;100190.35;1692323;84;21089;-74
2022/01/16 00:47:47;;;;;;;2.58;0.90;;;;;;;1.73;54.88;100176.46;1696411;84;21790;-74
2022/01/16 00:50:13;;;;;;;2.83;0.80;;;;;;;1.73;54.85;100179.52;1714851;82;21455;-74
2022/01/16 00:52:39;;;;;;;2.98;0.93;;;;;;;1.72;55.07;100179.98;1695162;84;22361;-73
2022/01/16 00:55:09;;;;;;;2.33;0.72;;;;;;;1.73;54.99;100195.14;1697039;84;21254;-74
2022/01/16 00:57:35;;;;;;;2.35;0.70;;;;;;;1.74;55.09;100183.84;1686332;83;20969;-74
2022/01/16 01:00:03;;;;;;;1.35;0.80;;;;;;;1.72;54.99;100172.63;1692525;84;21790;-73
2022/01/16 01:02:30;;;;;;;1.55;0.80;;;;;;;1.72;55.00;100189.09;1676956;85;21561;-74
2022/01/16 01:04:56;;;;;;;1.70;0.70;;;;;;;1.72;54.89;100186.49;1676058;85;21381;-74
2022/01/16 01:07:23;;;;;;;3.45;1.00;;;;;;;1.74;54.97;100170.83;1690873;84;21134;-74
2022/01/16 01:09:49;;;;;;;2.37;0.75;;;;;;;1.76;55.09;100185.07;1680875;83;21115;-73
2022/01/16 01:12:29;;;;;;;1.70;0.93;;;;;;;1.75;55.30;100199.85;1666091;86;22182;-75
2022/01/16 01:15:06;;;;;;;2.60;0.90;;;;;;;1.73;55.22;100201.66;1685671;84;21518;-74
2022/01/16 01:17:24;;;;;;;2.47;0.95;;;;;;;1.73;55.20;100212.07;1680578;85;21458;-73
2022/01/16 01:19:51;;;;;;;1.67;0.60;;;;;;;1.75;55.38;100243.27;1681969;84;21036;-73
2022/01/16 01:22:17;;;;;;;2.65;1.00;;;;;;;1.76;55.45;100269.23;1673617;84;20960;-73
2022/01/16 01:24:43;;;;;;;2.52;0.85;;;;;;;1.76;55.40;100243.20;1688224;84;21763;-75
2022/01/16 01:27:20;;;;;;;2.75;0.85;;;;;;;1.77;55.55;100244.88;1680220;84;21341;-74
2022/01/16 01:29:52;;;;;;;2.42;0.80;;;;;;;1.78;55.72;100287.39;1689314;84;21055;-74
2022/01/16 01:32:09;;;;;;;2.05;0.93;;;;;;;1.78;55.67;100293.90;1673431;84;21047;-74
2022/01/16 01:34:37;;;;;;;2.17;0.85;;;;;;;1.75;55.76;100245.41;1688816;84;21348;-74
2022/01/16 01:37:04;;;;;;;3.12;1.00;;;;;;;1.75;55.85;100288.84;1683324;84;22268;-74
2022/01/16 01:39:30;;;;;;;2.37;0.70;;;;;;;1.77;55.88;100299.56;1699482;84;21031;-74
2022/01/16 01:42:06;;;;;;;1.80;0.70;;;;;;;1.76;55.85;100155.13;1699856;83;20965;-75
2022/01/16 01:52:39;;;;;;;2.37;0.80;;;;;;;1.69;56.17;100134.57;1670536;84;21017;-73
2022/01/16 01:55:07;;;;;;;1.98;0.80;;;;;;;1.68;56.18;100186.72;1683394;83;21423;-74
2022/01/16 01:57:33;;;;;;;2.22;0.80;;;;;;;1.68;56.27;100181.05;1700373;83;21019;-73
2022/01/16 02:00:00;;;;;;;3.27;1.00;;;;;;;1.68;56.33;100193.23;1682162;84;21053;-74
2022/01/16 02:02:31;;;;;;;3.83;0.90;;;;;;;1.67;56.12;100216.27;1700942;83;22217;-74
2022/01/16 02:04:55;;;;;;;4.75;0.90;;;;;;;1.68;56.06;100235.72;1689838;84;20936;-73
2022/01/16 02:07:21;;;;;;;1.85;0.90;;;;;;;1.70;56.12;100216.97;1666447;83;21043;-75
2022/01/16 02:09:48;;;;;;;1.87;0.88;;;;;;;1.69;56.00;100239.17;1687245;84;21012;-74
2022/01/16 02:12:15;;;;;;;2.52;0.98;;;;;;;1.68;56.05;100279.98;1682409;84;21050;-73
2022/01/16 02:14:59;;;;;;;1.98;1.00;;;;;;;1.69;56.00;100254.33;1688390;84;21809;-74
2022/01/16 02:28:25;;;;;;;1.57;0.70;;;;;;;1.69;54.61;100273.02;1678234;84;21408;-74
2022/01/16 02:31:02;;;;;;;1.60;0.70;;;;;;;1.71;54.59;100262.92;1691462;84;20970;-73
2022/01/16 02:35:52;;;;;;;0.90;0.50;;;;;;;1.73;53.63;100283.67;1682467;83;21019;-74
2022/01/16 02:38:18;;;;;;;2.60;0.80;;;;;;;1.74;53.41;100293.20;1670007;84;21477;-73
2022/01/16 02:40:56;;;;;;;1.55;0.60;;;;;;;1.75;53.27;100284.94;1684979;84;22624;-74
2022/01/16 02:43:29;;;;;;;1.47;0.60;;;;;;;1.76;53.38;100291.83;1686353;84;21047;-74
2022/01/16 02:45:59;;;;;;;1.65;0.65;;;;;;;1.77;53.33;100287.00;1696466;84;21008;-74
2022/01/16 02:48:18;;;;;;;1.82;0.80;;;;;;;1.79;53.40;100299.50;1670014;85;21085;-74
2022/01/16 02:50:44;;;;;;;1.52;0.60;;;;;;;1.78;53.69;100305.16;1700131;84;21031;-74
2022/01/16 02:53:12;;;;;;;1.60;0.55;;;;;;;1.78;53.83;100289.99;1687078;85;21768;-74
2022/01/16 02:55:41;;;;;;;1.27;0.70;;;;;;;1.77;53.85;100293.05;1697175;84;21089;-74
2022/01/16 02:58:07;;;;;;;1.92;0.60;;;;;;;1.77;54.07;100320.86;1647121;85;20984;-73
2022/01/16 03:00:34;;;;;;;1.67;0.80;;;;;;;1.78;54.16;100318.64;1702594;84;21010;-74
2022/01/16 03:03:00;;;;;;;1.30;0.60;;;;;;;1.79;54.32;100321.63;1644613;86;21083;-74
2022/01/16 03:05:27;;;;;;;3.98;0.93;;;;;;;1.79;54.46;100317.72;1691383;84;21749;-74
2022/01/16 03:07:53;;;;;;;1.40;0.70;;;;;;;1.79;54.54;100324.23;1695362;84;21129;-74
2022/01/16 03:12:49;;;;;;;1.42;0.62;;;;;;;1.77;54.63;100324.30;1698841;84;21030;-74
2022/01/16 03:15:17;;;;;;;1.72;0.80;;;;;;;1.76;54.80;100326.52;1671472;84;21446;-74
2022/01/16 03:23:13;;;;;;;15.75;11.33;;;;;;;1.73;54.87;100328.78;1659929;84;21509;-75
2022/01/16 03:25:40;;;;;;;6.30;4.87;;;;;;;1.73;55.05;100330.54;1681460;84;21561;-73
2022/01/16 03:28:06;;;;;;;3.25;2.10;;;;;;;1.72;55.06;100327.55;1667167;85;21390;-75
2022/01/16 03:30:33;;;;;;;4.62;2.37;;;;;;;1.70;54.97;100334.59;1656069;85;22472;-74
2022/01/16 03:32:59;;;;;;;2.60;1.72;;;;;;;1.70;55.12;100328.92;1681718;85;21400;-75
2022/01/16 03:35:26;;;;;;;3.70;2.50;;;;;;;1.69;55.14;100332.90;1675993;84;21436;-74
2022/01/16 03:37:52;;;;;;;9.25;4.10;;;;;;;1.69;55.08;100333.75;1696299;84;21036;-74
2022/01/16 03:40:21;;;;;;;31.25;17.57;;;;;;;1.68;55.07;100339.02;1672525;85;21023;-73
2022/01/16 03:42:47;;;;;;;49.18;26.85;;;;;;;1.67;55.05;100342.09;1674257;85;22560;-75
2022/01/16 03:45:15;;;;;;;76.53;42.08;;;;;;;1.67;54.87;100338.18;1702251;84;21035;-74
2022/01/16 03:47:42;;;;;;;207.00;110.92;;;;;;;1.68;54.67;100346.38;1694828;84;21043;-74
2022/01/16 03:50:10;;;;;;;47.62;23.50;;;;;;;1.68;54.72;100341.17;1694631;84;21459;-74
2022/01/16 03:52:37;;;;;;;99.80;53.48;;;;;;;1.68;54.67;100339.87;1690602;84;20976;-75
2022/01/16 03:55:07;;;;;;;51.68;30.80;;;;;;;1.69;54.59;100344.62;1701431;83;22254;-74
2022/01/16 03:57:33;;;;;;;16.00;8.50;;;;;;;1.69;54.48;100342.02;1702088;83;21001;-75
2022/01/16 03:59:59;;;;;;;13.22;6.70;;;;;;;1.68;54.36;100346.83;1701727;83;20980;-74
2022/01/16 04:02:26;;;;;;;2.52;1.45;;;;;;;1.67;54.20;100349.90;1702355;84;21044;-75
2022/01/16 04:04:54;;;;;;;5.12;2.70;;;;;;;1.68;54.19;100350.28;1701991;84;21127;-74
2022/01/16 04:07:27;;;;;;;6.95;5.25;;;;;;;1.68;54.31;100352.05;1672831;85;22205;-74
2022/01/16 04:09:49;;;;;;;3.80;1.87;;;;;;;1.68;54.23;100345.53;1699039;84;20968;-75
2022/01/16 04:12:21;;;;;;;1.98;1.00;;;;;;;1.70;54.32;100353.66;1668090;85;20991;-74
2022/01/16 04:17:18;;;;;;;5.60;1.75;;;;;;;1.67;54.18;100359.01;1719155;82;21018;-74
2022/01/16 04:19:45;;;;;;;9.10;6.40;;;;;;;1.67;54.29;100355.10;1696275;82;21756;-74
2022/01/16 04:22:12;;;;;;;4.65;3.20;;;;;;;1.67;54.39;100360.77;1697253;84;21015;-74
2022/01/16 04:24:38;;;;;;;2.10;1.47;;;;;;;1.66;54.33;100361.23;1698725;84;21007;-73
2022/01/16 04:27:06;;;;;;;2.45;1.15;;;;;;;1.65;54.19;100367.34;1688183;84;20996;-74
2022/01/16 04:29:33;;;;;;;4.58;1.10;;;;;;;1.67;54.21;100372.03;1673081;85;21035;-74
2022/01/16 04:32:01;;;;;;;2.20;1.10;;;;;;;1.65;54.10;100363.44;1704532;83;21039;-74
2022/01/16 04:34:27;;;;;;;2.40;1.00;;;;;;;1.64;53.94;100377.38;1689731;84;21008;-73
2022/01/16 04:36:55;;;;;;;2.25;0.95;;;;;;;1.65;53.91;100367.80;1693334;84;21537;-75
2022/01/16 04:39:29;;;;;;;2.92;1.10;;;;;;;1.64;53.82;100377.38;1704469;84;21530;-75
2022/01/16 04:44:34;;;;;;;4.47;1.25;;;;;;;1.64;53.83;100373.47;1704751;83;21865;-74
2022/01/16 04:47:01;;;;;;;2.67;1.00;;;;;;;1.64;53.88;100382.58;1700663;84;21099;-74
2022/01/16 04:49:27;;;;;;;11.53;6.87;;;;;;;1.64;53.88;100391.69;1689709;84;21007;-74
2022/01/16 04:51:55;;;;;;;8.88;4.08;;;;;;;1.64;53.89;100392.13;1705515;83;21023;-73
2022/01/16 04:54:21;;;;;;;6.00;3.10;;;;;;;1.63;54.00;100399.09;1706238;84;21054;-73
2022/01/16 04:56:48;;;;;;;4.72;2.05;;;;;;;1.63;54.02;100400.84;1675159;84;22179;-75
2022/01/16 04:59:15;;;;;;;3.42;1.05;;;;;;;1.64;54.10;100410.34;1705636;84;21527;-74
2022/01/16 05:01:42;;;;;;;3.35;0.98;;;;;;;1.65;54.07;100408.16;1657854;84;21053;-75
2022/01/16 05:04:08;;;;;;;3.55;1.10;;;;;;;1.62;54.07;100420.83;1694105;84;20967;-74
2022/01/16 05:06:36;;;;;;;1.90;0.90;;;;;;;1.61;54.25;100419.14;1690609;83;21000;-74
2022/01/16 05:09:03;;;;;;;1.22;0.80;;;;;;;1.59;54.33;100413.16;1699463;84;21727;-74
2022/01/16 05:11:31;;;;;;;1.67;0.65;;;;;;;1.60;54.51;100413.55;1695279;84;21062;-74
2022/01/16 05:19:10;;;;;;;2.72;0.90;;;;;;;1.60;54.87;100420.05;1695817;84;21035;-74
2022/01/16 05:21:38;;;;;;;2.55;0.95;;;;;;;1.54;54.81;100421.59;1700498;83;21499;-73
2022/01/16 05:24:09;;;;;;;3.77;1.27;;;;;;;1.51;55.01;100429.54;1699407;84;21475;-74
2022/01/16 05:26:35;;;;;;;2.62;1.20;;;;;;;1.50;55.06;100441.32;1693993;84;21023;-74
2022/01/16 05:29:03;;;;;;;3.12;1.85;;;;;;;1.50;55.18;100437.42;1670665;84;21506;-74
2022/01/16 05:31:30;;;;;;;3.65;1.65;;;;;;;1.50;55.17;100443.47;1684289;84;21028;-75
2022/01/16 05:33:56;;;;;;;2.90;1.45;;;;;;;1.50;55.30;100440.86;1694290;84;22202;-75
2022/01/16 05:36:23;;;;;;;2.90;1.27;;;;;;;1.51;55.34;100449.52;1693219;84;21015;-75
2022/01/16 05:38:50;;;;;;;2.67;1.20;;;;;;;1.50;55.33;100444.77;1667959;84;20984;-74
2022/01/16 05:41:18;;;;;;;2.80;1.20;;;;;;;1.51;55.34;100443.02;1702284;82;21011;-75
2022/01/16 05:43:46;;;;;;;2.45;1.00;;;;;;;1.49;54.96;100438.33;1692289;84;21000;-74
2022/01/16 05:46:15;;;;;;;2.40;1.15;;;;;;;1.49;54.61;100432.67;1687152;84;21876;-74
2022/01/16 05:48:43;;;;;;;2.77;1.20;;;;;;;1.49;54.71;100427.47;1701712;84;21007;-74
2022/01/16 05:51:09;;;;;;;2.87;1.20;;;;;;;1.49;54.79;100415.75;1695614;84;20991;-75
2022/01/16 05:53:37;;;;;;;2.60;1.30;;;;;;;1.49;54.72;100426.16;1703256;84;20964;-74
2022/01/16 05:56:05;;;;;;;2.92;1.42;;;;;;;1.48;54.79;100437.94;1692574;84;21139;-73
2022/01/16 05:58:31;;;;;;;3.87;1.52;;;;;;;1.48;54.94;100439.24;1677559;84;21839;-74
2022/01/16 06:00:57;;;;;;;3.77;1.30;;;;;;;1.47;54.91;100438.40;1691490;84;21048;-73
2022/01/16 06:03:24;;;;;;;4.83;2.37;;;;;;;1.47;54.92;100438.85;1710698;83;21035;-75
2022/01/16 06:05:50;;;;;;;3.12;1.47;;;;;;;1.48;54.94;100434.88;1689568;84;20969;-75
2022/01/16 06:08:17;;;;;;;3.42;1.40;;;;;;;1.50;55.00;100445.23;1704028;84;21004;-75
2022/01/16 06:10:43;;;;;;;3.52;2.10;;;;;;;1.48;55.08;100440.09;1697282;84;21842;-74
2022/01/16 06:13:11;;;;;;;4.78;1.80;;;;;;;1.47;55.34;100438.40;1684528;84;20980;-75
2022/01/16 06:15:40;;;;;;;3.83;2.12;;;;;;;1.44;55.31;100444.55;1706940;83;20997;-74
2022/01/16 06:18:07;;;;;;;4.90;3.12;;;;;;;1.45;55.43;100451.94;1673123;84;21098;-72
2022/01/16 06:20:34;;;;;;;5.65;3.05;;;;;;;1.46;55.51;100448.42;1697232;84;21091;-71
2022/01/16 06:23:01;;;;;;;4.37;2.00;;;;;;;1.47;55.66;100444.06;1684498;83;22525;-72
2022/01/16 06:25:28;;;;;;;4.17;1.60;;;;;;;1.48;55.72;100446.59;1696142;84;20984;-72
2022/01/16 06:27:54;;;;;;;4.78;1.70;;;;;;;1.46;55.58;100450.17;1697462;83;21440;-72
2022/01/16 06:30:21;;;;;;;5.28;1.80;;;;;;;1.45;55.72;100448.03;1673414;83;21064;-72
2022/01/16 06:32:48;;;;;;;2.83;1.32;;;;;;;1.43;55.74;100446.77;1704439;83;21145;-71
2022/01/16 06:35:15;;;;;;;4.45;1.40;;;;;;;1.44;55.61;100447.61;1706382;84;21823;-74
2022/01/16 06:37:42;;;;;;;2.70;1.20;;;;;;;1.47;55.78;100451.87;1710912;82;21055;-70
2022/01/16 06:40:11;;;;;;;3.33;1.27;;;;;;;1.48;55.59;100445.75;1735143;82;20986;-71
2022/01/16 06:42:38;;;;;;;4.87;1.25;;;;;;;1.46;55.60;100442.37;1704432;82;21363;-71
2022/01/16 06:45:07;;;;;;;6.45;1.45;;;;;;;1.47;55.65;100435.80;1678864;84;21054;-71
2022/01/16 06:47:34;;;;;;;4.15;1.47;;;;;;;1.47;55.51;100439.70;1693299;84;21780;-70
2022/01/16 06:50:01;;;;;;;3.00;1.10;;;;;;;1.46;55.54;100438.02;1703227;84;21031;-72
2022/01/16 06:52:27;;;;;;;3.90;1.17;;;;;;;1.48;55.51;100443.15;1694429;83;20991;-71
2022/01/16 06:54:54;;;;;;;2.50;1.10;;;;;;;1.48;55.65;100447.89;1699795;83;21004;-73
2022/01/16 06:57:20;;;;;;;2.98;1.20;;;;;;;1.49;55.55;100453.95;1703797;83;21054;-71
2022/01/16 06:59:48;;;;;;;3.00;1.05;;;;;;;1.50;55.28;100447.83;1697065;84;21867;-73
2022/01/16 07:02:16;;;;;;;3.02;1.10;;;;;;;1.50;55.24;100452.58;1677495;85;21052;-72
2022/01/16 07:04:45;;;;;;;3.15;1.00;;;;;;;1.48;55.17;100450.95;1702280;83;21060;-71
2022/01/16 07:07:12;;;;;;;4.37;1.20;;;;;;;1.49;55.29;100455.25;1706567;83;21060;-71
2022/01/16 07:09:39;;;;;;;2.90;1.10;;;;;;;1.52;55.26;100452.05;1698170;84;20996;-69
2022/01/16 07:12:09;;;;;;;3.47;1.22;;;;;;;1.54;55.31;100458.04;1677108;84;21039;-73
2022/01/16 07:14:35;;;;;;;2.75;1.35;;;;;;;1.55;55.40;100453.25;1699693;84;21020;-70
2022/01/16 07:17:02;;;;;;;2.60;0.82;;;;;;;1.56;55.32;100452.34;1695487;84;21528;-71
2022/01/16 07:19:30;;;;;;;2.62;1.10;;;;;;;1.60;55.30;100463.46;1705998;84;21416;-70
2022/01/16 07:21:57;;;;;;;2.90;1.10;;;;;;;1.62;55.21;100463.78;1704304;83;21034;-69
2022/01/16 07:24:23;;;;;;;11.57;5.78;;;;;;;1.63;55.30;100460.72;1686425;84;21851;-70
2022/01/16 07:26:50;;;;;;;7.60;3.75;;;;;;;1.63;55.11;100468.08;1688877;84;20960;-71
2022/01/16 07:29:16;;;;;;;8.58;2.87;;;;;;;1.63;54.98;100473.28;1707168;84;21007;-71
2022/01/16 07:31:43;;;;;;;5.53;1.98;;;;;;;1.62;55.07;100477.26;1701884;84;21008;-71
2022/01/16 07:34:10;;;;;;;5.85;3.15;;;;;;;1.63;55.01;100478.95;1690677;83;21035;-73
2022/01/16 07:36:38;;;;;;;4.80;2.30;;;;;;;1.65;55.22;100479.76;1687714;83;21898;-71
2022/01/16 07:39:05;;;;;;;6.58;3.10;;;;;;;1.64;55.25;100481.94;1693132;84;21035;-72
2022/01/16 07:41:32;;;;;;;6.17;2.55;;;;;;;1.64;55.29;100488.45;1688630;84;21075;-71
2022/01/16 07:43:59;;;;;;;5.70;2.50;;;;;;;1.65;55.49;100488.41;1696111;84;20984;-70
2022/01/16 07:46:27;;;;;;;5.90;3.05;;;;;;;1.66;55.53;100484.89;1688152;84;21035;-66
2022/01/16 07:48:54;;;;;;;6.22;3.35;;;;;;;1.67;55.65;100490.95;1702954;83;22097;-72
2022/01/16 07:51:20;;;;;;;6.55;3.02;;;;;;;1.67;55.66;100494.39;1679890;84;21383;-71
2022/01/16 07:53:47;;;;;;;5.72;1.60;;;;;;;1.67;55.89;100493.09;1683632;84;21362;-71
2022/01/16 07:56:13;;;;;;;5.65;2.10;;;;;;;1.67;56.06;100494.39;1695343;84;21012;-71
2022/01/16 07:58:42;;;;;;;5.55;3.12;;;;;;;1.67;56.53;100487.89;1693989;83;20975;-69
2022/01/16 08:01:08;;;;;;;29.85;16.10;;;;;;;1.67;56.76;100488.34;1696121;84;21443;-72
2022/01/16 08:03:35;;;;;;;24.95;14.25;;;;;;;1.68;57.00;100493.94;1679761;84;21075;-70
2022/01/16 08:06:03;;;;;;;20.00;11.20;;;;;;;1.69;57.27;100495.63;1697167;84;21530;-70
2022/01/16 08:08:30;;;;;;;11.83;6.30;;;;;;;1.69;57.54;100508.66;1691660;84;20984;-69
2022/01/16 08:10:56;;;;;;;12.25;6.03;;;;;;;1.68;57.68;100507.80;1692925;84;21514;-70
2022/01/16 08:13:23;;;;;;;15.90;7.95;;;;;;;1.68;57.85;100517.38;1722756;82;22881;-71
2022/01/16 08:15:50;;;;;;;21.90;10.05;;;;;;;1.67;57.99;100528.25;1727548;82;21067;-70
2022/01/16 08:18:16;;;;;;;38.88;24.12;;;;;;;1.65;58.22;100529.22;1722113;82;21028;-71
2022/01/16 08:20:43;;;;;;;17.48;9.65;;;;;;;1.66;58.32;100525.70;1700077;84;21047;-71
2022/01/16 08:23:09;;;;;;;12.40;6.60;;;;;;;1.67;58.44;100525.64;1699923;84;21027;-71
2022/01/16 08:25:36;;;;;;;12.65;8.98;;;;;;;1.70;58.68;100519.45;1698979;84;21798;-70
2022/01/16 08:28:03;;;;;;;7.60;4.47;;;;;;;1.70;58.55;100516.39;1674240;84;21023;-70
2022/01/16 08:30:31;;;;;;;11.93;7.42;;;;;;;1.74;58.58;100518.44;1699230;84;21499;-71
2022/01/16 08:32:58;;;;;;;14.28;8.95;;;;;;;1.74;58.55;100522.34;1691395;83;20981;-71
2022/01/16 08:35:24;;;;;;;8.90;4.95;;;;;;;1.75;58.59;100522.73;1690145;84;20962;-72
2022/01/16 08:37:50;;;;;;;12.47;7.30;;;;;;;1.77;58.33;100526.57;1641350;85;21813;-71
2022/01/16 08:40:17;;;;;;;5.55;2.30;;;;;;;1.77;58.42;100527.88;1651982;85;20988;-71
2022/01/16 08:42:43;;;;;;;3.65;1.85;;;;;;;1.78;58.49;100534.31;1660240;86;21034;-70
2022/01/16 08:45:10;;;;;;;7.30;3.00;;;;;;;1.78;58.26;100530.41;1662175;86;20974;-70
2022/01/16 08:47:37;;;;;;;4.42;2.40;;;;;;;1.78;58.31;100532.17;1662172;86;20997;-71
2022/01/16 08:50:08;;;;;;;4.58;2.10;;;;;;;1.77;58.38;100533.08;1625359;86;21789;-71
2022/01/16 08:52:35;;;;;;;5.30;2.20;;;;;;;1.78;58.18;100536.92;1621076;87;21490;-70
2022/01/16 08:55:02;;;;;;;6.47;2.65;;;;;;;1.80;58.23;100534.25;1624795;86;21082;-71
2022/01/16 08:57:29;;;;;;;5.50;2.62;;;;;;;1.81;58.23;100535.48;1649837;86;21563;-71
2022/01/16 08:59:55;;;;;;;5.67;2.25;;;;;;;1.82;58.16;100524.61;1649966;85;21449;-71
2022/01/16 09:02:22;;;;;;;4.95;2.08;;;;;;;1.83;57.90;100527.15;1624462;85;21730;-71
2022/01/16 09:04:48;;;;;;;4.15;1.72;;;;;;;1.84;57.83;100522.81;1650205;85;20979;-72
2022/01/16 09:07:16;;;;;;;6.58;2.85;;;;;;;1.84;57.59;100515.00;1650363;86;21058;-71
2022/01/16 09:09:42;;;;;;;7.28;2.40;;;;;;;1.85;57.64;100513.63;1657156;86;21059;-71
2022/01/16 09:12:11;;;;;;;6.75;2.62;;;;;;;1.86;57.49;100507.97;1650622;87;20951;-71
2022/01/16 09:14:39;;;;;;;5.72;2.50;;;;;;;1.86;57.51;100510.57;1650430;86;49072;-71
2022/01/16 09:17:06;;;;;;;5.10;2.10;;;;;;;1.88;57.42;100506.14;1662118;86;21426;-70
2022/01/16 09:19:32;;;;;;;5.83;2.20;;;;;;;1.93;57.44;100504.17;1627036;86;21494;-70
2022/01/16 09:21:59;;;;;;;7.53;2.50;;;;;;;1.97;57.37;100500.55;1621143;88;21442;-71
2022/01/16 09:24:25;;;;;;;5.78;2.27;;;;;;;2.00;57.09;100503.02;1621280;88;21538;-70
2022/01/16 09:26:54;;;;;;;5.10;2.15;;;;;;;2.01;56.81;100488.62;1659202;86;21740;-71
2022/01/16 09:29:21;;;;;;;6.30;2.15;;;;;;;2.05;56.85;100489.81;1653207;86;21082;-71
2022/01/16 09:31:48;;;;;;;6.92;2.58;;;;;;;2.11;56.81;100494.74;1676145;83;21007;-70
2022/01/16 09:34:15;;;;;;;5.10;2.37;;;;;;;2.14;56.51;100493.33;1707669;84;21015;-71
2022/01/16 09:36:42;;;;;;;5.90;2.20;;;;;;;2.17;56.48;100490.12;1707810;84;21107;-72
2022/01/16 09:39:08;;;;;;;5.12;1.90;;;;;;;2.21;56.30;100492.13;1711981;83;22226;-71
2022/01/16 09:41:34;;;;;;;8.05;2.10;;;;;;;2.21;55.63;100480.41;1722680;83;21036;-72
2022/01/16 09:44:01;;;;;;;4.47;1.80;;;;;;;2.21;55.60;100484.31;1723533;82;21012;-70
2022/01/16 09:46:27;;;;;;;5.35;1.87;;;;;;;2.21;55.22;100486.46;1713196;82;20968;-71
2022/01/16 09:48:54;;;;;;;6.12;2.58;;;;;;;2.22;55.08;100479.06;1706810;83;21066;-71
2022/01/16 09:51:21;;;;;;;4.78;2.25;;;;;;;2.26;55.26;100479.30;1707595;84;22288;-71
2022/01/16 09:53:47;;;;;;;6.40;2.20;;;;;;;2.33;54.92;100472.53;1707614;82;20946;-70
2022/01/16 09:56:14;;;;;;;4.42;1.70;;;;;;;2.36;54.51;100475.84;1677808;84;20999;-71
2022/01/16 09:58:41;;;;;;;4.20;1.70;;;;;;;2.34;53.65;100477.67;1707802;82;21028;-71
2022/01/16 10:01:08;;;;;;;2.87;1.45;;;;;;;2.33;53.48;100481.66;1707532;84;20934;-71
2022/01/16 10:03:41;;;;;;;3.98;1.57;;;;;;;2.30;53.54;100480.86;1679371;85;21792;-70
2022/01/16 10:06:20;;;;;;;4.35;1.85;;;;;;;2.29;53.32;100476.55;1706854;82;20963;-71
2022/01/16 10:08:49;;;;;;;5.40;1.92;;;;;;;2.27;52.69;100474.94;1707617;84;20949;-71
2022/01/16 10:11:39;;;;;;;4.28;1.72;;;;;;;2.24;52.76;100469.41;1679374;85;20998;-71
2022/01/16 10:16:40;;;;;;;6.17;2.50;;;;;;;2.26;52.64;100462.36;1677857;84;21835;-70
2022/01/16 10:19:28;;;;;;;7.35;3.37;;;;;;;2.27;52.82;100471.03;1707942;83;20992;-71
2022/01/16 10:21:59;;;;;;;5.03;1.60;;;;;;;2.28;52.53;100465.74;1707841;82;21063;-71
2022/01/16 10:24:29;;;;;;;4.97;1.60;;;;;;;2.28;51.79;100464.91;1706113;84;20999;-71
2022/01/16 10:27:14;;;;;;;5.70;2.20;;;;;;;2.26;51.93;100458.45;1707791;84;20997;-70
2022/01/16 10:29:53;;;;;;;3.90;1.70;;;;;;;2.26;52.03;100459.77;1719755;83;21813;-71
2022/01/16 10:32:26;;;;;;;4.78;2.50;;;;;;;2.25;51.79;100471.10;1697261;83;21000;-71
2022/01/16 10:35:07;;;;;;;5.47;2.12;;;;;;;2.29;52.03;100479.62;1700793;83;21492;-71
2022/01/16 10:37:33;;;;;;;5.00;1.95;;;;;;;2.31;52.21;100486.91;1668739;85;21018;-71
2022/01/16 10:40:07;;;;;;;4.58;1.70;;;;;;;2.31;51.62;100496.03;1691364;84;21012;-72
2022/01/16 10:42:34;;;;;;;4.17;1.37;;;;;;;2.25;50.70;100493.25;1699764;84;21833;-72
2022/01/16 10:45:11;;;;;;;6.03;1.67;;;;;;;2.18;50.84;100489.21;1691768;84;20950;-72
2022/01/16 10:47:43;;;;;;;4.80;1.95;;;;;;;2.13;51.35;100500.30;1699756;83;20960;-72
2022/01/16 10:50:15;;;;;;;4.67;1.98;;;;;;;2.08;51.86;100499.64;1696767;83;21055;-71
2022/01/16 10:53:07;;;;;;;3.60;1.43;;;;;;;2.09;51.75;100494.81;1687727;83;21530;-71
2022/01/16 10:55:51;;;;;;;5.80;1.92;;;;;;;2.08;51.32;100498.34;1687707;84;21831;-71
2022/01/16 10:58:28;;;;;;;4.62;1.92;;;;;;;2.06;51.28;100499.31;1666994;84;20953;-71
2022/01/16 11:01:02;;;;;;;4.58;2.22;;;;;;;2.03;51.56;100492.48;1700060;82;20985;-71
2022/01/16 11:03:49;;;;;;;5.97;2.25;;;;;;;2.01;51.71;100494.28;1691921;84;20972;-71
2022/01/16 11:06:21;;;;;;;5.97;2.33;;;;;;;1.99;51.87;100487.00;1699777;84;21011;-70
2022/01/16 11:08:52;;;;;;;2.95;1.42;;;;;;;1.97;51.86;100487.06;1677913;84;21793;-72
2022/01/16 11:11:20;;;;;;;3.62;1.60;;;;;;;1.96;52.05;100487.14;1677505;85;21012;-71
2022/01/16 11:13:46;;;;;;;3.10;1.62;;;;;;;1.92;52.11;100485.09;1683187;84;20976;-71
2022/01/16 11:16:14;;;;;;;3.27;1.75;;;;;;;1.93;52.04;100490.73;1699841;84;20984;-70
2022/01/16 11:18:48;;;;;;;4.67;2.12;;;;;;;1.88;51.89;100485.30;1692118;84;21036;-71
2022/01/16 11:24:00;;;;;;;5.08;2.30;;;;;;;1.89;51.98;100487.84;1681384;84;21023;-71
2022/01/16 11:26:18;;;;;;;3.75;1.62;;;;;;;1.90;51.83;100494.73;1649481;87;20975;-72
2022/01/16 11:28:45;;;;;;;3.42;1.75;;;;;;;1.88;51.48;100496.56;1666626;84;21437;-73
2022/01/16 11:31:13;;;;;;;2.70;1.67;;;;;;;1.88;51.32;100501.78;1659616;84;21602;-72
2022/01/16 11:33:40;;;;;;;6.12;1.87;;;;;;;1.86;51.38;100493.19;1699745;83;21784;-71
2022/01/16 11:36:23;;;;;;;6.42;3.08;;;;;;;1.86;50.46;100500.16;1692250;84;20957;-71
2022/01/16 11:38:56;;;;;;;5.00;2.50;;;;;;;1.78;50.32;100501.77;1692210;84;20945;-71
2022/01/16 11:41:37;;;;;;;2.75;1.65;;;;;;;1.72;49.95;100491.13;1631719;85;20989;-70
2022/01/16 11:44:06;;;;;;;3.37;1.72;;;;;;;1.72;49.95;100491.13;1666732;84;21028;-71
2022/01/16 11:46:35;;;;;;;2.65;1.60;;;;;;;1.71;49.91;100495.95;1691955;84;21861;-71
2022/01/16 11:49:06;;;;;;;3.40;1.60;;;;;;;1.71;49.71;100492.50;1685297;84;21088;-71
2022/01/16 11:51:39;;;;;;;6.00;2.50;;;;;;;1.70;49.96;100494.72;1700219;84;21043;-71
2022/01/16 11:54:23;;;;;;;3.95;2.30;;;;;;;1.72;50.12;100497.64;1691125;83;21031;-71
2022/01/16 11:56:51;;;;;;;4.45;1.82;;;;;;;1.76;50.11;100497.54;1697466;83;21036;-70
2022/01/16 11:59:22;;;;;;;4.72;2.02;;;;;;;1.77;50.38;100497.92;1710405;83;21863;-71
2022/01/16 12:02:01;;;;;;;4.70;2.50;;;;;;;1.79;50.67;100498.25;1721192;82;20944;-70
2022/01/16 12:04:37;;;;;;;4.42;2.27;;;;;;;1.80;50.56;100496.48;1687039;83;20988;-71
2022/01/16 12:07:20;;;;;;;3.47;1.82;;;;;;;1.81;50.54;100497.72;1691599;84;21020;-70
2022/01/16 12:09:59;;;;;;;3.95;1.80;;;;;;;1.83;50.62;100501.56;1664347;84;21780;-71
2022/01/16 12:12:31;;;;;;;5.67;2.25;;;;;;;1.83;50.50;100493.75;1691373;84;22652;-71
2022/01/16 12:15:18;;;;;;;7.72;3.55;;;;;;;1.76;50.30;100499.69;1692049;84;20960;-70
2022/01/16 12:17:49;;;;;;;5.22;2.22;;;;;;;1.72;50.63;100495.50;1689700;84;21110;-71
2022/01/16 12:20:22;;;;;;;5.10;2.10;;;;;;;1.70;50.42;100494.27;1677525;85;21043;-70
2022/01/16 12:22:57;;;;;;;3.67;2.08;;;;;;;1.70;50.25;100493.41;1684118;84;20981;-71
2022/01/16 12:25:37;;;;;;;4.60;2.08;;;;;;;1.70;50.47;100492.96;1692080;84;21861;-71